Airfield :
LOGIN :

Register | Disclaimer

   EN    FR    IT 

 










Legend :    VFR   Marginal VFR   IFR   Intensive IFR   Very Intensive IFR
Visi :
Ceiling :
>= 8 km
>= 3000ft
5 to 8 km
1000 to 3000 ft
1500m to 5 km
500 to 1000 ft
800 to 1500m
200 to 500 ft
< 800m
< 200 ft
Symbols :   Thunderstorms  Fog  Heavy snow  Heavy precipitations  Wind > 20 kt
SIGMETs :     Misc.  Thunderstorms  Icing  Turbulence  Mountain Waves  Volcanic Ashes







- Airport Elevation : 512 ft
- IATA code : URO
- Download approach charts


LFOP - Rouen Vallée de Seine

CURRENT METAR :
  • 210300Z AUTO 04006KT 5000 BR NSC 10/09 Q1015

EXPIRED METARs :
  • 210230Z AUTO 04006KT 5000 BR NSC 11/09 Q1015
  • 210200Z AUTO 05006KT 5000 BR NSC 11/10 Q1015
  • 210130Z AUTO 04006KT 5000 BR NSC 11/10 Q1016
  • 210100Z AUTO 05007KT 5000 BR NSC 12/10 Q1016
  • 210030Z AUTO 04006KT 5000 BR NSC 12/10 Q1016

TAF TAF LFOP
Valid from the 20 at 18:00 until the 21 at 18:00 UTC


201700Z 2018/2118 05008KT CAVOK
BECMG 2102/2105 4000 BR
BECMG 2106/2108 9999 NSW
TEMPO 2111/2118 4000 SHRA BKN040CB
PROB30
TEMPO 2111/2118 TSRA
ATIS : +33 2 35 80 80 34
Met : +33 2 32 86 52 80
No reported NOTAMs for that airfield.



MET'MAP, your aeronautical weather chart ! - Copyright ORBIFLY December 2007 - Disclaimer

ORBIFLY MET'MAP TEAM :

Programming & Development : Alexandra Zaïnal
Concept & Development : Baudouin d'Aumeries
Co-Development & Prog : Marc-Olivier Méhu
Technical & hardware support : Manuel Goepfert

Contact : metmap@orbifly.com




SOURCES & CREDITS :

   NOAA